Time,TemperatureF,DewpointF,PressureIn,WindDirection,WindDirectionDegrees,WindSpeedMPH,WindSpeedGustMPH,Humidity,HourlyPrecipIn,Conditions,Clouds,dailyrainin,SolarRadiationWatts/m^2,SoftwareType,DateUTC
2013-07-17 00:13:00,73.3,56.0,30.14,SSE,163,15.0,16.0,54,0.00,,,0.00,0,weatherlink.com 1.10,2013-07-17 06:13:00,
2013-07-17 00:28:00,73.3,55.0,30.14,SE,142,17.0,20.0,53,0.00,,,0.00,0,weatherlink.com 1.10,2013-07-17 06:28:00,
2013-07-17 00:43:00,70.6,58.0,30.15,South,169,2.0,19.0,64,0.00,,,0.00,0,weatherlink.com 1.10,2013-07-17 06:43:00,
2013-07-17 00:58:00,67.7,58.0,30.16,South,177,6.0,13.0,72,0.00,,,0.00,0,weatherlink.com 1.10,2013-07-17 06:58:00,
2013-07-17 01:13:00,67.8,58.0,30.16,South,177,7.0,11.0,71,0.00,,,0.00,0,weatherlink.com 1.10,2013-07-17 07:13:00,
2013-07-17 01:28:00,67.6,58.0,30.16,South,178,5.0,15.0,71,0.00,,,0.00,0,weatherlink.com 1.10,2013-07-17 07:28:00,
2013-07-17 01:43:00,70.6,56.0,30.16,SE,142,24.0,27.0,61,0.00,,,0.00,0,weatherlink.com 1.10,2013-07-17 07:43:00,
2013-07-17 01:58:00,70.9,56.0,30.16,SSE,153,25.0,27.0,60,0.00,,,0.00,0,weatherlink.com 1.10,2013-07-17 07:58:00,
2013-07-17 02:13:00,70.1,56.0,30.16,SSE,164,17.0,23.0,62,0.00,,,0.00,0,weatherlink.com 1.10,2013-07-17 08:13:00,
2013-07-17 02:28:00,69.2,56.0,30.16,SE,138,13.0,20.0,64,0.00,,,0.00,0,weatherlink.com 1.10,2013-07-17 08:28:00,
2013-07-17 02:43:00,71.3,55.0,30.15,SSE,157,14.0,23.0,57,0.00,,,0.00,0,weatherlink.com 1.10,2013-07-17 08:43:00,
2013-07-17 02:58:00,71.6,54.0,30.16,SSE,163,13.0,20.0,55,0.00,,,0.00,0,weatherlink.com 1.10,2013-07-17 08:58:00,
2013-07-17 03:13:00,71.4,54.0,30.15,SSE,165,14.0,18.0,55,0.00,,,0.00,0,weatherlink.com 1.10,2013-07-17 09:13:00,
2013-07-17 03:28:00,67.6,56.0,30.15,SSW,195,4.0,7.0,67,0.00,,,0.00,0,weatherlink.com 1.10,2013-07-17 09:28:00,
2013-07-17 03:43:00,67.2,56.0,30.16,SSW,205,4.0,7.0,67,0.00,,,0.00,0,weatherlink.com 1.10,2013-07-17 09:43:00,
2013-07-17 03:58:00,67.2,56.0,30.15,SW,225,6.0,7.0,67,0.00,,,0.00,0,weatherlink.com 1.10,2013-07-17 09:58:00,
2013-07-17 04:13:00,67.5,55.0,30.15,SSE,151,2.0,8.0,65,0.00,,,0.00,0,weatherlink.com 1.10,2013-07-17 10:13:00,
2013-07-17 04:28:00,67.6,56.0,30.16,SSW,202,0.0,5.0,66,0.00,,,0.00,0,weatherlink.com 1.10,2013-07-17 10:28:00,
2013-07-17 04:43:00,67.3,56.0,30.16,SSW,206,0.0,3.0,67,0.00,,,0.00,0,weatherlink.com 1.10,2013-07-17 10:43:00,
2013-07-17 04:58:00,67.1,56.0,30.16,SE,136,1.0,4.0,67,0.00,,,0.00,0,weatherlink.com 1.10,2013-07-17 10:58:00,
2013-07-17 05:13:00,67.4,56.0,30.16,SSW,205,6.0,7.0,67,0.00,,,0.00,0,weatherlink.com 1.10,2013-07-17 11:13:00,
2013-07-17 05:28:00,66.3,56.0,30.17,SSW,211,6.0,6.0,69,0.00,,,0.00,0,weatherlink.com 1.10,2013-07-17 11:28:00,
2013-07-17 05:43:00,65.8,55.0,30.17,South,186,0.0,7.0,68,0.00,,,0.00,0,weatherlink.com 1.10,2013-07-17 11:43:00,
2013-07-17 05:58:00,66.2,55.0,30.18,East,97,3.0,6.0,67,0.00,,,0.00,0,weatherlink.com 1.10,2013-07-17 11:58:00,
2013-07-17 06:13:00,65.9,54.0,30.18,SSE,166,4.0,4.0,65,0.00,,,0.00,7,weatherlink.com 1.10,2013-07-17 12:13:00,
2013-07-17 06:28:00,66.7,54.0,30.19,SSE,167,4.0,10.0,63,0.00,,,0.00,12,weatherlink.com 1.10,2013-07-17 12:28:00,
2013-07-17 06:43:00,65.9,54.0,30.18,South,175,1.0,8.0,65,0.00,,,0.00,18,weatherlink.com 1.10,2013-07-17 12:43:00,
2013-07-17 06:58:00,65.6,54.0,30.18,South,174,2.0,5.0,67,0.00,,,0.00,23,weatherlink.com 1.10,2013-07-17 12:58:00,
2013-07-17 07:14:00,65.6,55.0,30.18,South,176,1.0,7.0,69,0.00,,,0.00,105,weatherlink.com 1.10,2013-07-17 13:14:00,
2013-07-17 07:29:00,66.0,54.0,30.18,SSE,161,6.0,7.0,66,0.00,,,0.00,148,weatherlink.com 1.10,2013-07-17 13:29:00,
2013-07-17 07:44:00,67.6,55.0,30.18,SSE,167,0.0,5.0,64,0.00,,,0.00,181,weatherlink.com 1.10,2013-07-17 13:44:00,
2013-07-17 07:59:00,65.2,56.0,30.18,SSE,163,0.0,2.0,73,0.00,,,0.00,211,weatherlink.com 1.10,2013-07-17 13:59:00,
2013-07-17 08:14:00,66.2,57.0,30.18,NE,42,0.0,4.0,71,0.00,,,0.00,246,weatherlink.com 1.10,2013-07-17 14:14:00,
2013-07-17 08:29:00,67.3,56.0,30.18,NNW,348,2.0,5.0,68,0.00,,,0.00,281,weatherlink.com 1.10,2013-07-17 14:29:00,
2013-07-17 08:44:00,67.9,56.0,30.18,NNE,19,0.0,5.0,67,0.00,,,0.00,315,weatherlink.com 1.10,2013-07-17 14:44:00,
2013-07-17 08:59:00,69.8,57.0,30.19,NNW,344,2.0,3.0,63,0.00,,,0.00,364,weatherlink.com 1.10,2013-07-17 14:59:00,
2013-07-17 09:14:00,70.5,57.0,30.19,NW,309,1.0,4.0,63,0.00,,,0.00,485,weatherlink.com 1.10,2013-07-17 15:14:00,
2013-07-17 09:29:00,70.9,57.0,30.18,West,274,4.0,5.0,61,0.00,,,0.00,357,weatherlink.com 1.10,2013-07-17 15:29:00,
2013-07-17 09:44:00,71.1,56.0,30.18,SW,232,1.0,5.0,59,0.00,,,0.00,439,weatherlink.com 1.10,2013-07-17 15:44:00,
2013-07-17 09:59:00,71.4,56.0,30.18,SSW,202,3.0,8.0,59,0.00,,,0.00,471,weatherlink.com 1.10,2013-07-17 15:59:00,
2013-07-17 10:14:00,72.9,57.0,30.17,SW,214,6.0,11.0,58,0.00,,,0.00,531,weatherlink.com 1.10,2013-07-17 16:14:00,
2013-07-17 10:29:00,74.7,58.0,30.16,SW,222,3.0,12.0,56,0.00,,,0.00,668,weatherlink.com 1.10,2013-07-17 16:29:00,
2013-07-17 10:44:00,75.4,57.0,30.16,SW,215,10.0,14.0,54,0.00,,,0.00,582,weatherlink.com 1.10,2013-07-17 16:44:00,
2013-07-17 10:59:00,76.2,57.0,30.16,SW,223,9.0,16.0,52,0.00,,,0.00,603,weatherlink.com 1.10,2013-07-17 16:59:00,
2013-07-17 11:14:00,77.1,57.0,30.15,SW,219,14.0,16.0,50,0.00,,,0.00,624,weatherlink.com 1.10,2013-07-17 17:14:00,
2013-07-17 11:29:00,77.8,56.0,30.15,SW,227,10.0,16.0,48,0.00,,,0.00,654,weatherlink.com 1.10,2013-07-17 17:29:00,
2013-07-17 11:44:00,77.8,56.0,30.15,SW,219,12.0,18.0,48,0.00,,,0.00,438,weatherlink.com 1.10,2013-07-17 17:44:00,
2013-07-17 11:59:00,78.7,57.0,30.14,SW,215,13.0,16.0,48,0.00,,,0.00,703,weatherlink.com 1.10,2013-07-17 17:59:00,
2013-07-17 12:15:00,79.6,56.0,30.14,SW,225,9.0,13.0,45,0.00,,,0.00,731,weatherlink.com 1.10,2013-07-17 18:15:00,
2013-07-17 12:30:00,80.2,56.0,30.13,SW,219,6.0,11.0,44,0.00,,,0.00,710,weatherlink.com 1.10,2013-07-17 18:30:00,
2013-07-17 12:45:00,80.9,57.0,30.13,SW,234,8.0,14.0,44,0.00,,,0.00,726,weatherlink.com 1.10,2013-07-17 18:45:00,
2013-07-17 13:00:00,81.5,57.0,30.12,SW,216,10.0,14.0,43,0.00,,,0.00,731,weatherlink.com 1.10,2013-07-17 19:00:00,
2013-07-17 13:15:00,82.5,57.0,30.12,SW,221,15.0,15.0,42,0.00,,,0.00,745,weatherlink.com 1.10,2013-07-17 19:15:00,
2013-07-17 13:30:00,83.3,58.0,30.11,SW,226,14.0,15.0,42,0.00,,,0.00,796,weatherlink.com 1.10,2013-07-17 19:30:00,
2013-07-17 13:45:00,83.8,57.0,30.11,SSW,201,1.0,15.0,40,0.00,,,0.00,754,weatherlink.com 1.10,2013-07-17 19:45:00,
2013-07-17 14:00:00,84.7,58.0,30.10,SW,220,13.0,16.0,40,0.00,,,0.00,744,weatherlink.com 1.10,2013-07-17 20:00:00,
2013-07-17 14:15:00,-999.0,-99.9,30.09,North,-999,-999.0,-999.0,-999,0.00,,,0.00,,weatherlink.com 1.10,2013-07-17 20:15:00,
2013-07-17 14:30:00,-999.0,-99.9,30.09,North,-999,-999.0,-999.0,-999,0.00,,,0.00,,weatherlink.com 1.10,2013-07-17 20:30:00,
2013-07-17 14:45:00,-999.0,-99.9,30.08,North,-999,-999.0,-999.0,-999,0.00,,,0.00,,weatherlink.com 1.10,2013-07-17 20:45:00,
2013-07-17 15:00:00,-999.0,-99.9,30.07,North,-999,-999.0,-999.0,-999,0.00,,,0.00,,weatherlink.com 1.10,2013-07-17 21:00:00,
2013-07-17 15:15:00,-999.0,-99.9,30.07,North,-999,-999.0,-999.0,-999,0.00,,,0.00,,weatherlink.com 1.10,2013-07-17 21:15:00,
2013-07-17 15:30:00,-999.0,-99.9,30.07,North,-999,-999.0,-999.0,-999,0.00,,,0.00,,weatherlink.com 1.10,2013-07-17 21:30:00,
2013-07-17 15:45:00,-999.0,-99.9,30.07,North,-999,-999.0,-999.0,-999,0.00,,,0.00,,weatherlink.com 1.10,2013-07-17 21:45:00,
2013-07-17 16:00:00,-999.0,-99.9,30.07,North,-999,-999.0,-999.0,-999,0.00,,,0.00,,weatherlink.com 1.10,2013-07-17 22:00:00,
2013-07-17 16:15:00,-999.0,-99.9,30.07,North,-999,-999.0,-999.0,-999,0.00,,,0.00,,weatherlink.com 1.10,2013-07-17 22:15:00,
2013-07-17 16:31:00,-999.0,-99.9,30.07,North,-999,-999.0,-999.0,-999,0.00,,,0.00,,weatherlink.com 1.10,2013-07-17 22:31:00,
2013-07-17 16:46:00,-999.0,-99.9,30.07,North,-999,-999.0,-999.0,-999,0.00,,,0.00,,weatherlink.com 1.10,2013-07-17 22:46:00,
2013-07-17 17:01:00,-999.0,-99.9,30.06,North,-999,-999.0,-999.0,-999,0.00,,,0.00,,weatherlink.com 1.10,2013-07-17 23:01:00,
2013-07-17 17:16:00,-999.0,-99.9,30.06,North,-999,-999.0,-999.0,-999,0.00,,,0.00,,weatherlink.com 1.10,2013-07-17 23:16:00,
2013-07-17 17:31:00,-999.0,-99.9,30.06,North,-999,-999.0,-999.0,-999,0.00,,,0.00,,weatherlink.com 1.10,2013-07-17 23:31:00,
2013-07-17 17:46:00,87.7,55.0,30.07,NW,317,23.0,26.0,33,0.00,,,0.00,86,weatherlink.com 1.10,2013-07-17 23:46:00,
2013-07-17 18:01:00,-999.0,-99.9,30.06,North,-999,-999.0,-999.0,-999,0.00,,,0.00,,weatherlink.com 1.10,2013-07-18 00:01:00,
2013-07-17 18:16:00,-999.0,-99.9,30.07,North,-999,-999.0,-999.0,-999,0.00,,,0.00,,weatherlink.com 1.10,2013-07-18 00:16:00,
2013-07-17 18:31:00,-999.0,-99.9,30.08,North,-999,-999.0,-999.0,-999,0.00,,,0.00,,weatherlink.com 1.10,2013-07-18 00:31:00,
2013-07-17 18:46:00,-999.0,-99.9,30.09,North,-999,-999.0,-999.0,-999,0.00,,,0.00,,weatherlink.com 1.10,2013-07-18 00:46:00,
2013-07-17 19:01:00,-999.0,-99.9,30.10,North,-999,-999.0,-999.0,-999,0.00,,,0.00,,weatherlink.com 1.10,2013-07-18 01:01:00,
2013-07-17 19:16:00,-999.0,-99.9,30.10,North,-999,-999.0,-999.0,-999,0.00,,,0.00,,weatherlink.com 1.10,2013-07-18 01:16:00,
2013-07-17 19:31:00,-999.0,-99.9,30.11,North,-999,-999.0,-999.0,-999,0.00,,,0.00,,weatherlink.com 1.10,2013-07-18 01:31:00,
2013-07-17 19:46:00,-999.0,-99.9,30.11,North,-999,-999.0,-999.0,-999,0.00,,,0.00,,weatherlink.com 1.10,2013-07-18 01:46:00,
2013-07-17 20:02:00,-999.0,-99.9,30.12,North,-999,-999.0,-999.0,-999,0.00,,,0.00,,weatherlink.com 1.10,2013-07-18 02:02:00,
2013-07-17 20:17:00,83.7,52.0,30.12,NNW,336,17.0,24.0,33,0.00,,,0.00,97,weatherlink.com 1.10,2013-07-18 02:17:00,
2013-07-17 20:32:00,83.0,52.0,30.13,NNW,330,19.0,23.0,34,0.00,,,0.00,62,weatherlink.com 1.10,2013-07-18 02:32:00,
2013-07-17 20:47:00,82.5,51.0,30.14,NW,322,18.0,25.0,33,0.00,,,0.00,37,weatherlink.com 1.10,2013-07-18 02:47:00,
2013-07-17 21:02:00,82.0,49.0,30.14,NW,319,16.0,25.0,32,0.00,,,0.00,18,weatherlink.com 1.10,2013-07-18 03:02:00,
2013-07-17 21:17:00,81.6,49.0,30.15,NW,325,13.0,22.0,32,0.00,,,0.00,7,weatherlink.com 1.10,2013-07-18 03:17:00,
2013-07-17 21:32:00,80.9,48.0,30.16,NW,313,14.0,21.0,32,0.00,,,0.00,0,weatherlink.com 1.10,2013-07-18 03:32:00,
2013-07-17 21:47:00,80.2,49.0,30.17,NW,316,14.0,21.0,33,0.00,,,0.00,0,weatherlink.com 1.10,2013-07-18 03:47:00,
2013-07-17 22:02:00,79.4,45.0,30.18,NW,317,21.0,24.0,30,0.00,,,0.00,0,weatherlink.com 1.10,2013-07-18 04:02:00,
2013-07-17 22:17:00,79.6,45.0,30.19,NW,325,15.0,27.0,29,0.00,,,0.00,0,weatherlink.com 1.10,2013-07-18 04:17:00,
2013-07-17 22:32:00,78.9,45.0,30.20,NNW,345,9.0,21.0,30,0.00,,,0.00,0,weatherlink.com 1.10,2013-07-18 04:32:00,
2013-07-17 22:47:00,78.0,44.0,30.21,SE,132,3.0,15.0,30,0.00,,,0.00,0,weatherlink.com 1.10,2013-07-18 04:47:00,
2013-07-17 23:02:00,76.4,44.0,30.21,SSW,207,3.0,12.0,31,0.00,,,0.00,0,weatherlink.com 1.10,2013-07-18 05:02:00,
2013-07-17 23:17:00,77.1,43.0,30.21,East,92,10.0,11.0,30,0.00,,,0.00,0,weatherlink.com 1.10,2013-07-18 05:17:00,
2013-07-17 23:32:00,76.6,44.0,30.23,ESE,105,7.0,10.0,31,0.00,,,0.00,0,weatherlink.com 1.10,2013-07-18 05:32:00,
2013-07-17 23:47:00,76.7,44.0,30.23,NNE,14,0.0,13.0,31,0.00,,,0.00,0,weatherlink.com 1.10,2013-07-18 05:47:00,